Time;durP1;ratioP1;P1;durP2;ratioP2;P2;SDS_P1;SDS_P2;PMS_P1;PMS_P2;Temp;Humidity;BMP_temperature;BMP_pressure;BME280_temperature;BME280_humidity;BME280_pressure;Samples;Min_cycle;Max_cycle;Signal;HPM_P1;HPM_P2
2022/06/20 00:01:43;;;;;;;4.93;2.72;;;;;;;;;;5110843;28;20026;-41
2022/06/20 00:04:18;;;;;;;4.85;2.63;;;;;;;;;;5110779;28;20471;-46
2022/06/20 00:06:43;;;;;;;4.00;2.65;;;;;;;;;;5110872;28;20019;-40
2022/06/20 00:09:10;;;;;;;3.70;2.90;;;;;;;;;;5116013;28;20031;-38
2022/06/20 00:11:40;;;;;;;3.20;2.80;;;;;;;;;;5116460;28;20051;-45
2022/06/20 00:14:07;;;;;;;3.95;2.70;;;;;;;;;;5116431;28;20045;-45
2022/06/20 00:16:34;;;;;;;4.55;3.13;;;;;;;;;;5115928;28;20048;-40
2022/06/20 00:19:00;;;;;;;4.45;3.00;;;;;;;;;;5116255;28;20023;-38
2022/06/20 00:21:26;;;;;;;3.22;2.90;;;;;;;;;;5115623;28;20030;-44
2022/06/20 00:23:51;;;;;;;2.95;2.65;;;;;;;;;;5115962;28;20020;-37
2022/06/20 00:26:18;;;;;;;5.20;3.17;;;;;;;;;;5116221;28;20036;-43
2022/06/20 00:28:44;;;;;;;5.82;2.67;;;;;;;;;;5116171;27;20023;-39
2022/06/20 00:31:10;;;;;;;6.40;2.72;;;;;;;;;;5115892;28;20281;-46
2022/06/20 00:33:35;;;;;;;8.05;2.78;;;;;;;;;;5116051;28;20035;-43
2022/06/20 00:36:01;;;;;;;3.13;2.83;;;;;;;;;;5115929;28;20386;-43
2022/06/20 00:38:27;;;;;;;5.25;2.90;;;;;;;;;;5115724;28;20024;-38
2022/06/20 00:40:57;;;;;;;5.07;2.97;;;;;;;;;;5115595;28;20024;-42
2022/06/20 00:43:42;;;;;;;3.00;2.80;;;;;;;;;;5115847;28;20028;-38
2022/06/20 00:46:17;;;;;;;3.17;2.85;;;;;;;;;;5115840;27;20043;-42
2022/06/20 00:48:50;;;;;;;6.10;2.97;;;;;;;;;;5115830;28;20024;-40
2022/06/20 00:51:22;;;;;;;3.97;3.00;;;;;;;;;;5115454;28;20035;-37
2022/06/20 00:54:02;;;;;;;5.07;3.17;;;;;;;;;;5115602;28;20035;-42
2022/06/20 00:56:40;;;;;;;4.30;2.70;;;;;;;;;;5115449;28;20024;-40
2022/06/20 00:59:11;;;;;;;7.22;3.35;;;;;;;;;;5115308;28;20043;-39
2022/06/20 01:01:40;;;;;;;5.35;2.53;;;;;;;;;;5115600;28;20375;-46
2022/06/20 01:04:21;;;;;;;6.15;2.47;;;;;;;;;;5115521;28;20027;-42
2022/06/20 01:06:52;;;;;;;3.15;2.88;;;;;;;;;;5115719;28;20023;-48
2022/06/20 01:09:21;;;;;;;3.00;2.67;;;;;;;;;;5115475;27;20376;-42
2022/06/20 01:11:48;;;;;;;5.30;2.88;;;;;;;;;;5115488;28;20024;-37
2022/06/20 01:14:27;;;;;;;2.85;2.60;;;;;;;;;;5115262;28;20035;-37
2022/06/20 01:16:57;;;;;;;4.75;3.13;;;;;;;;;;5114920;28;20043;-41
2022/06/20 01:19:28;;;;;;;3.70;2.78;;;;;;;;;;5115029;28;20020;-38
2022/06/20 01:21:54;;;;;;;5.78;2.85;;;;;;;;;;5114900;28;20030;-45
2022/06/20 01:24:36;;;;;;;5.25;2.90;;;;;;;;;;5113893;28;20519;-37
2022/06/20 01:27:31;;;;;;;8.55;3.00;;;;;;;;;;5115146;28;20024;-38
2022/06/20 01:29:57;;;;;;;6.50;3.45;;;;;;;;;;5114962;28;20028;-42
2022/06/20 01:32:23;;;;;;;7.93;3.30;;;;;;;;;;5115035;28;20051;-46
2022/06/20 01:34:49;;;;;;;7.28;2.97;;;;;;;;;;5114510;27;20031;-38
2022/06/20 01:37:29;;;;;;;3.70;2.83;;;;;;;;;;5114841;28;20016;-37
2022/06/20 01:40:28;;;;;;;3.88;3.03;;;;;;;;;;5114827;28;20480;-37
2022/06/20 01:42:53;;;;;;;5.25;3.28;;;;;;;;;;5080403;28;20043;-37
2022/06/20 01:48:06;;;;;;;3.60;3.17;;;;;;;;;;5114716;28;20498;-41
2022/06/20 01:50:33;;;;;;;6.10;3.15;;;;;;;;;;5114644;28;20379;-41
2022/06/20 01:53:01;;;;;;;4.25;2.90;;;;;;;;;;5114606;28;20478;-40
2022/06/20 01:55:28;;;;;;;4.65;3.00;;;;;;;;;;5114091;28;20030;-37
2022/06/20 01:57:59;;;;;;;3.90;3.40;;;;;;;;;;5114445;28;20035;-46
2022/06/20 02:00:25;;;;;;;5.90;3.63;;;;;;;;;;5114407;28;20108;-40
2022/06/20 02:02:58;;;;;;;6.97;3.50;;;;;;;;;;5114340;28;20035;-38
2022/06/20 02:05:27;;;;;;;3.92;3.28;;;;;;;;;;5114298;28;20114;-42
2022/06/20 02:07:54;;;;;;;4.23;3.50;;;;;;;;;;5114244;28;20028;-42
2022/06/20 02:10:28;;;;;;;6.80;3.60;;;;;;;;;;5113950;27;20260;-41
2022/06/20 02:12:57;;;;;;;8.57;3.83;;;;;;;;;;5114131;28;20417;-47
2022/06/20 02:15:23;;;;;;;5.07;3.80;;;;;;;;;;5113740;28;20071;-38
2022/06/20 02:17:50;;;;;;;5.20;3.95;;;;;;;;;;5114056;28;20092;-38
2022/06/20 02:20:23;;;;;;;5.80;4.03;;;;;;;;;;5113672;28;20023;-47
2022/06/20 02:22:51;;;;;;;4.55;3.65;;;;;;;;;;5114236;28;20080;-42
2022/06/20 02:25:21;;;;;;;4.55;3.97;;;;;;;;;;5113650;28;20023;-37
2022/06/20 02:27:53;;;;;;;6.07;3.78;;;;;;;;;;5113645;28;20106;-39
2022/06/20 02:30:19;;;;;;;3.97;3.58;;;;;;;;;;5112978;28;20055;-42
2022/06/20 02:32:51;;;;;;;3.85;3.30;;;;;;;;;;5113822;28;20356;-40
2022/06/20 02:35:18;;;;;;;4.05;3.17;;;;;;;;;;5113664;28;20076;-52
2022/06/20 02:37:45;;;;;;;5.30;3.40;;;;;;;;;;5113731;28;20026;-49
2022/06/20 02:40:14;;;;;;;3.65;3.33;;;;;;;;;;5113666;28;20432;-38
2022/06/20 02:42:45;;;;;;;4.43;3.38;;;;;;;;;;5113598;28;20087;-38
2022/06/20 02:45:12;;;;;;;8.07;4.05;;;;;;;;;;5112013;28;20060;-42
2022/06/20 02:47:40;;;;;;;7.93;3.45;;;;;;;;;;5113530;28;20031;-39
2022/06/20 02:50:06;;;;;;;4.47;3.60;;;;;;;;;;5113264;28;20108;-39
2022/06/20 02:52:46;;;;;;;7.82;3.47;;;;;;;;;;5113449;28;20028;-41
2022/06/20 02:55:14;;;;;;;9.93;3.90;;;;;;;;;;5113174;28;20459;-37
2022/06/20 02:57:47;;;;;;;4.93;3.33;;;;;;;;;;5113406;28;20034;-38
2022/06/20 03:00:18;;;;;;;4.28;3.33;;;;;;;;;;5113665;28;20133;-40
2022/06/20 03:02:50;;;;;;;5.82;3.92;;;;;;;;;;5113051;28;20020;-38
2022/06/20 03:05:17;;;;;;;4.75;3.40;;;;;;;;;;5113158;28;20284;-39
2022/06/20 03:07:44;;;;;;;4.53;3.42;;;;;;;;;;5113357;28;20019;-37
2022/06/20 03:10:32;;;;;;;5.03;3.30;;;;;;;;;;5113322;28;20047;-40
2022/06/20 03:12:58;;;;;;;5.03;3.30;;;;;;;;;;5113322;28;20015;-41
2022/06/20 03:15:24;;;;;;;7.28;3.78;;;;;;;;;;5112731;28;20046;-54
2022/06/20 03:17:51;;;;;;;3.95;3.40;;;;;;;;;;5113249;28;20031;-55
2022/06/20 03:20:20;;;;;;;3.90;3.40;;;;;;;;;;5113130;28;20022;-39
2022/06/20 03:22:55;;;;;;;4.72;3.40;;;;;;;;;;5113155;28;20028;-38
2022/06/20 03:25:21;;;;;;;5.70;3.50;;;;;;;;;;5113175;28;20049;-42
2022/06/20 03:27:51;;;;;;;6.55;3.00;;;;;;;;;;5112782;28;20471;-52
2022/06/20 03:30:31;;;;;;;3.33;3.03;;;;;;;;;;5113376;28;20020;-38
2022/06/20 03:32:58;;;;;;;5.00;3.58;;;;;;;;;;5113105;28;20379;-52
2022/06/20 03:35:26;;;;;;;11.27;3.10;;;;;;;;;;5112655;28;20467;-52
2022/06/20 03:37:52;;;;;;;4.72;3.30;;;;;;;;;;5113004;28;20119;-50
2022/06/20 03:40:17;;;;;;;5.47;3.20;;;;;;;;;;5112739;28;20479;-46
2022/06/20 03:42:44;;;;;;;4.00;3.30;;;;;;;;;;5116387;28;20063;-55
2022/06/20 03:45:12;;;;;;;4.75;3.40;;;;;;;;;;5117092;28;20027;-38
2022/06/20 03:47:56;;;;;;;4.07;3.10;;;;;;;;;;5116961;28;20063;-46
2022/06/20 03:50:29;;;;;;;5.38;3.05;;;;;;;;;;5116651;28;20076;-47
2022/06/20 03:53:02;;;;;;;5.60;2.95;;;;;;;;;;5116626;28;20028;-50
2022/06/20 03:55:37;;;;;;;4.57;2.95;;;;;;;;;;5116500;28;20032;-43
2022/06/20 03:58:10;;;;;;;6.68;2.92;;;;;;;;;;5117082;28;20032;-50
2022/06/20 04:00:54;;;;;;;5.03;2.80;;;;;;;;;;5116835;28;20090;-46
2022/06/20 04:03:23;;;;;;;3.17;2.80;;;;;;;;;;5116787;28;20103;-45
2022/06/20 04:06:07;;;;;;;4.22;3.47;;;;;;;;;;5116437;28;20043;-36
2022/06/20 04:11:26;;;;;;;10.25;3.10;;;;;;;;;;5116259;28;20033;-46
2022/06/20 04:13:58;;;;;;;8.85;2.85;;;;;;;;;;5116413;28;20092;-44
2022/06/20 04:16:33;;;;;;;5.10;2.83;;;;;;;;;;5115936;28;20127;-39
2022/06/20 04:19:08;;;;;;;4.25;3.63;;;;;;;;;;5116355;28;20035;-57
2022/06/20 04:21:56;;;;;;;6.40;2.80;;;;;;;;;;5116386;28;20376;-58
2022/06/20 04:24:28;;;;;;;3.83;2.90;;;;;;;;;;5116261;27;20020;-55
2022/06/20 04:27:04;;;;;;;3.70;2.50;;;;;;;;;;5116179;28;20047;-48
2022/06/20 04:29:39;;;;;;;3.17;2.70;;;;;;;;;;5116272;28;20070;-38
2022/06/20 04:32:30;;;;;;;6.15;2.60;;;;;;;;;;5115838;28;20024;-45
2022/06/20 04:35:20;;;;;;;3.40;2.78;;;;;;;;;;5115952;28;20066;-37
2022/06/20 04:37:55;;;;;;;4.85;2.30;;;;;;;;;;5115953;28;20054;-41
2022/06/20 04:41:02;;;;;;;3.72;2.72;;;;;;;;;;5115921;28;20027;-41
2022/06/20 04:43:53;;;;;;;2.50;2.30;;;;;;;;;;5052568;28;20036;-38
2022/06/20 04:46:31;;;;;;;5.85;2.90;;;;;;;;;;5115932;27;20099;-53
2022/06/20 04:48:56;;;;;;;6.00;2.80;;;;;;;;;;5115451;28;20468;-38
2022/06/20 04:51:35;;;;;;;5.22;2.20;;;;;;;;;;5115670;28;20024;-37
2022/06/20 04:54:02;;;;;;;4.90;2.60;;;;;;;;;;5114691;28;20031;-44
2022/06/20 04:56:28;;;;;;;2.47;2.28;;;;;;;;;;5115531;28;20032;-38
2022/06/20 04:59:09;;;;;;;4.32;2.40;;;;;;;;;;5115181;28;20493;-43
2022/06/20 05:01:36;;;;;;;2.92;2.53;;;;;;;;;;5115593;28;20030;-37
2022/06/20 05:04:27;;;;;;;7.82;2.60;;;;;;;;;;5115223;28;20023;-43
2022/06/20 05:06:55;;;;;;;2.42;2.10;;;;;;;;;;5115465;28;20040;-45
2022/06/20 05:10:18;;;;;;;5.22;2.45;;;;;;;;;;5115403;28;20088;-38
2022/06/20 05:12:50;;;;;;;7.95;2.40;;;;;;;;;;5051938;28;20025;-38
2022/06/20 05:15:23;;;;;;;4.32;2.42;;;;;;;;;;5051744;28;20057;-37
2022/06/20 05:17:50;;;;;;;3.35;2.78;;;;;;;;;;5087263;28;20059;-40
2022/06/20 05:20:22;;;;;;;2.95;2.40;;;;;;;;;;5114910;27;20526;-50
2022/06/20 05:22:53;;;;;;;3.65;2.20;;;;;;;;;;5114797;28;20059;-39
2022/06/20 05:25:21;;;;;;;2.60;2.40;;;;;;;;;;5115055;28;20023;-41
2022/06/20 05:27:59;;;;;;;3.53;2.33;;;;;;;;;;5113729;28;20106;-38
2022/06/20 05:30:29;;;;;;;2.40;1.92;;;;;;;;;;5114936;28;20024;-42
2022/06/20 05:33:05;;;;;;;4.07;2.58;;;;;;;;;;5115063;28;20416;-43
2022/06/20 05:35:42;;;;;;;3.17;2.38;;;;;;;;;;5114487;28;20116;-40
2022/06/20 05:38:28;;;;;;;2.55;2.35;;;;;;;;;;5114723;28;20019;-43
2022/06/20 05:40:56;;;;;;;3.45;2.60;;;;;;;;;;5114555;28;20172;-42
2022/06/20 05:43:22;;;;;;;4.30;2.50;;;;;;;;;;5114732;28;20032;-38
2022/06/20 05:45:51;;;;;;;5.40;2.60;;;;;;;;;;5114355;28;20050;-38
2022/06/20 05:48:18;;;;;;;5.80;2.50;;;;;;;;;;5114491;28;20020;-40
2022/06/20 05:50:50;;;;;;;3.42;2.50;;;;;;;;;;5114276;28;20510;-40
2022/06/20 05:53:24;;;;;;;2.85;2.58;;;;;;;;;;5114499;27;20031;-39
2022/06/20 05:55:51;;;;;;;2.60;2.40;;;;;;;;;;5114456;28;20383;-61
2022/06/20 05:58:29;;;;;;;3.33;2.50;;;;;;;;;;5114442;28;20027;-47
2022/06/20 06:00:59;;;;;;;2.53;2.15;;;;;;;;;;5114343;28;20100;-46
2022/06/20 06:03:33;;;;;;;3.88;2.58;;;;;;;;;;5114058;28;20031;-48
2022/06/20 06:06:07;;;;;;;5.97;2.58;;;;;;;;;;5112517;28;20027;-46
2022/06/20 06:08:44;;;;;;;20.30;5.00;;;;;;;;;;5112300;28;20054;-59
2022/06/20 06:11:13;;;;;;;23.40;4.72;;;;;;;;;;5112205;28;20027;-54
2022/06/20 06:13:48;;;;;;;10.05;3.08;;;;;;;;;;5112145;28;20115;-59
2022/06/20 06:16:52;;;;;;;2.92;2.35;;;;;;;;;;5112834;28;20069;-51
2022/06/20 06:19:41;;;;;;;4.05;2.30;;;;;;;;;;5081860;28;20035;-40
2022/06/20 06:22:17;;;;;;;;;;;;;;;;;;5114122;28;20030;-37
2022/06/20 06:24:45;;;;;;;7.22;2.53;;;;;;;;;;5113890;28;20324;-39
2022/06/20 06:27:24;;;;;;;2.60;2.40;;;;;;;;;;5113223;28;20484;-49
2022/06/20 06:29:54;;;;;;;;;;;;;;;;;;5112322;28;20063;-38
2022/06/20 06:32:29;;;;;;;6.95;2.58;;;;;;;;;;5112551;28;19946;-50
2022/06/20 06:35:09;;;;;;;4.32;2.25;;;;;;;;;;5113589;28;20032;-41
2022/06/20 06:37:50;;;;;;;6.25;2.50;;;;;;;;;;5113188;28;20031;-40
2022/06/20 06:40:32;;;;;;;3.03;2.00;;;;;;;;;;5113154;28;20023;-43
2022/06/20 06:42:59;;;;;;;5.05;2.55;;;;;;;;;;5113229;28;20023;-40
2022/06/20 06:45:28;;;;;;;4.07;2.05;;;;;;;;;;5113454;28;20076;-46
2022/06/20 06:48:09;;;;;;;5.70;2.40;;;;;;;;;;5113437;27;20035;-37
2022/06/20 06:50:46;;;;;;;4.70;2.45;;;;;;;;;;5112096;28;20052;-40
2022/06/20 06:53:20;;;;;;;2.97;2.20;;;;;;;;;;5113218;28;20030;-59
2022/06/20 06:55:53;;;;;;;3.33;2.15;;;;;;;;;;5112977;28;20027;-48
2022/06/20 06:58:32;;;;;;;8.55;3.92;;;;;;;;;;5112291;28;20034;-51
2022/06/20 07:01:12;;;;;;;8.48;3.30;;;;;;;;;;5110927;28;20597;-55
2022/06/20 07:03:43;;;;;;;6.10;2.92;;;;;;;;;;5111896;28;20070;-43
2022/06/20 07:06:20;;;;;;;7.93;2.92;;;;;;;;;;5111430;28;20043;-49
2022/06/20 07:08:54;;;;;;;6.30;2.30;;;;;;;;;;5112760;28;20058;-48
2022/06/20 07:11:25;;;;;;;3.35;2.25;;;;;;;;;;5113148;28;20028;-62
2022/06/20 07:14:02;;;;;;;3.03;1.95;;;;;;;;;;5112488;28;20429;-42
2022/06/20 07:16:40;;;;;;;5.57;1.90;;;;;;;;;;5108550;28;20777;-40
2022/06/20 07:19:08;;;;;;;3.40;2.20;;;;;;;;;;5113034;28;20390;-65
2022/06/20 07:21:36;;;;;;;2.72;2.13;;;;;;;;;;5113135;28;20049;-58
2022/06/20 07:24:06;;;;;;;3.30;1.92;;;;;;;;;;5112653;28;20058;-55
2022/06/20 07:26:43;;;;;;;4.75;2.88;;;;;;;;;;5113029;28;20019;-52
2022/06/20 07:29:30;;;;;;;2.17;1.85;;;;;;;;;;5113076;28;20020;-58
2022/06/20 07:32:22;;;;;;;2.20;2.00;;;;;;;;;;5112761;28;20038;-60
2022/06/20 07:34:53;;;;;;;2.53;2.20;;;;;;;;;;5112661;28;20024;-42
2022/06/20 07:37:24;;;;;;;3.55;2.65;;;;;;;;;;5112942;28;20024;-64
2022/06/20 07:39:56;;;;;;;4.13;2.17;;;;;;;;;;5113039;28;20352;-60
2022/06/20 07:42:38;;;;;;;3.25;2.55;;;;;;;;;;5112889;28;20034;-49
2022/06/20 07:45:16;;;;;;;8.45;2.20;;;;;;;;;;5112883;28;20560;-63
2022/06/20 07:47:49;;;;;;;3.17;2.10;;;;;;;;;;5112841;28;20092;-38
2022/06/20 07:50:21;;;;;;;3.15;2.00;;;;;;;;;;5112545;28;20027;-45
2022/06/20 07:52:56;;;;;;;1.98;1.88;;;;;;;;;;5112476;28;20039;-38
2022/06/20 07:55:26;;;;;;;2.15;2.03;;;;;;;;;;5112474;28;20067;-63
2022/06/20 07:57:58;;;;;;;3.97;2.10;;;;;;;;;;5111225;28;20433;-56
2022/06/20 08:00:30;;;;;;;2.70;2.10;;;;;;;;;;5112707;28;20031;-50
2022/06/20 08:03:02;;;;;;;3.00;2.17;;;;;;;;;;5112473;28;20398;-64
2022/06/20 08:05:39;;;;;;;1.90;1.80;;;;;;;;;;5112453;28;20043;-54
2022/06/20 08:08:17;;;;;;;6.88;2.45;;;;;;;;;;5112694;28;20418;-61
2022/06/20 08:11:40;;;;;;;7.88;1.80;;;;;;;;;;5112400;28;20019;-63
2022/06/20 08:14:15;;;;;;;7.32;2.10;;;;;;;;;;5111853;28;20042;-54
2022/06/20 08:16:42;;;;;;;3.08;1.98;;;;;;;;;;5112143;28;20056;-51
2022/06/20 08:19:08;;;;;;;4.53;1.92;;;;;;;;;;5112248;28;20116;-64
2022/06/20 08:21:40;;;;;;;2.35;2.15;;;;;;;;;;5111729;28;20107;-40
2022/06/20 08:24:17;;;;;;;2.65;1.70;;;;;;;;;;5112491;28;20036;-42
2022/06/20 08:26:52;;;;;;;2.70;2.22;;;;;;;;;;5112510;28;20032;-53
2022/06/20 08:29:26;;;;;;;3.42;1.80;;;;;;;;;;5114475;28;20098;-37
2022/06/20 08:31:53;;;;;;;2.00;1.90;;;;;;;;;;5112860;28;20019;-52
2022/06/20 08:34:32;;;;;;;6.75;2.00;;;;;;;;;;5114047;28;20019;-57
2022/06/20 08:37:04;;;;;;;2.33;2.10;;;;;;;;;;5114394;28;20420;-37
2022/06/20 08:39:44;;;;;;;8.40;2.25;;;;;;;;;;5114131;28;20146;-61
2022/06/20 08:42:34;;;;;;;5.43;2.75;;;;;;;;;;5114451;28;20441;-65
2022/06/20 08:45:00;;;;;;;2.25;2.00;;;;;;;;;;5113817;28;20104;-38
2022/06/20 08:47:51;;;;;;;3.40;2.07;;;;;;;;;;5114075;27;20027;-51
2022/06/20 08:50:39;;;;;;;3.53;2.13;;;;;;;;;;5114167;28;20284;-53
2022/06/20 08:53:41;;;;;;;2.75;2.50;;;;;;;;;;5113829;28;20035;-48
2022/06/20 08:56:31;;;;;;;3.30;2.08;;;;;;;;;;5113684;28;20126;-60
2022/06/20 08:59:07;;;;;;;2.45;2.00;;;;;;;;;;5113686;28;20050;-64
2022/06/20 09:01:43;;;;;;;2.40;2.20;;;;;;;;;;5113718;28;20022;-39
2022/06/20 09:04:32;;;;;;;2.78;2.33;;;;;;;;;;5113423;28;20546;-65
2022/06/20 09:07:33;;;;;;;2.90;2.13;;;;;;;;;;5113855;28;20036;-64
2022/06/20 09:10:12;;;;;;;4.43;2.00;;;;;;;;;;5113371;28;20043;-56
2022/06/20 09:12:56;;;;;;;3.20;1.98;;;;;;;;;;5113847;28;20023;-62
2022/06/20 09:15:30;;;;;;;3.42;1.92;;;;;;;;;;5113359;28;20505;-39
2022/06/20 09:18:33;;;;;;;3.13;2.22;;;;;;;;;;5113550;28;20399;-53
2022/06/20 09:21:10;;;;;;;9.32;2.20;;;;;;;;;;5113405;28;20028;-65
2022/06/20 09:24:00;;;;;;;10.80;2.97;;;;;;;;;;5113026;28;20039;-48
2022/06/20 09:26:33;;;;;;;5.40;2.22;;;;;;;;;;5113301;28;20038;-46
2022/06/20 09:29:43;;;;;;;5.03;2.33;;;;;;;;;;5113239;28;20102;-37
2022/06/20 09:32:17;;;;;;;4.85;2.30;;;;;;;;;;5067031;28;20035;-44
2022/06/20 09:34:58;;;;;;;5.20;2.42;;;;;;;;;;5113271;28;20367;-55
2022/06/20 09:38:05;;;;;;;7.55;2.10;;;;;;;;;;5112725;28;20032;-38
2022/06/20 09:40:59;;;;;;;4.80;2.10;;;;;;;;;;5103631;28;20063;-42
2022/06/20 09:43:49;;;;;;;2.05;1.88;;;;;;;;;;5112194;28;20032;-43
2022/06/20 09:46:21;;;;;;;4.75;2.47;;;;;;;;;;5112767;28;20046;-38
2022/06/20 09:49:08;;;;;;;5.72;2.50;;;;;;;;;;5111690;28;20023;-44
2022/06/20 09:51:50;;;;;;;2.20;2.00;;;;;;;;;;5112682;28;20471;-55
2022/06/20 09:54:24;;;;;;;5.00;2.40;;;;;;;;;;5111840;28;20076;-51
2022/06/20 09:57:27;;;;;;;2.42;2.22;;;;;;;;;;5112821;28;20028;-38
2022/06/20 09:59:53;;;;;;;2.67;2.20;;;;;;;;;;5108855;28;20087;-42
2022/06/20 10:02:53;;;;;;;2.33;2.10;;;;;;;;;;5111239;28;20027;-43
2022/06/20 10:05:31;;;;;;;2.78;2.28;;;;;;;;;;5110831;28;20027;-42
2022/06/20 10:08:38;;;;;;;7.07;2.13;;;;;;;;;;5111144;28;20368;-41
2022/06/20 10:11:14;;;;;;;2.45;2.25;;;;;;;;;;5068646;28;20046;-41
2022/06/20 10:13:57;;;;;;;2.70;2.47;;;;;;;;;;5111032;28;20020;-49
2022/06/20 10:16:34;;;;;;;5.18;2.20;;;;;;;;;;5110461;28;20101;-44
2022/06/20 10:19:32;;;;;;;3.67;2.55;;;;;;;;;;5110704;28;20550;-48
2022/06/20 10:22:14;;;;;;;5.60;2.47;;;;;;;;;;5065008;28;20130;-57
2022/06/20 10:25:10;;;;;;;4.30;2.60;;;;;;;;;;5110888;28;20035;-42
2022/06/20 10:28:06;;;;;;;6.93;2.55;;;;;;;;;;5110603;28;20027;-54
2022/06/20 10:30:47;;;;;;;2.67;2.20;;;;;;;;;;5110637;28;20543;-53
2022/06/20 10:33:29;;;;;;;4.00;2.20;;;;;;;;;;5110416;28;20031;-56
2022/06/20 10:36:40;;;;;;;2.58;2.38;;;;;;;;;;5110592;28;20134;-38
2022/06/20 10:39:06;;;;;;;5.32;2.65;;;;;;;;;;5110571;28;20031;-41
2022/06/20 10:41:35;;;;;;;2.67;2.40;;;;;;;;;;5110713;28;20022;-40
2022/06/20 10:44:34;;;;;;;2.65;2.45;;;;;;;;;;5110248;28;20091;-57
2022/06/20 10:47:20;;;;;;;2.78;2.45;;;;;;;;;;5109339;28;20151;-52
2022/06/20 10:49:48;;;;;;;2.50;2.30;;;;;;;;;;5110089;28;20488;-61
2022/06/20 10:52:31;;;;;;;3.28;2.53;;;;;;;;;;5109942;28;20031;-53
2022/06/20 10:55:30;;;;;;;3.85;2.70;;;;;;;;;;5091677;28;20027;-53
2022/06/20 10:58:25;;;;;;;3.15;2.35;;;;;;;;;;5109662;28;20096;-60
2022/06/20 11:01:13;;;;;;;4.25;2.78;;;;;;;;;;5068119;28;20062;-37
2022/06/20 11:04:20;;;;;;;4.47;2.40;;;;;;;;;;5110016;28;20062;-42
2022/06/20 11:07:03;;;;;;;8.35;2.70;;;;;;;;;;5109828;28;20121;-54
2022/06/20 11:09:33;;;;;;;3.55;2.30;;;;;;;;;;5110053;28;20019;-61
2022/06/20 11:12:50;;;;;;;3.83;2.60;;;;;;;;;;5109770;28;20027;-41
2022/06/20 11:15:22;;;;;;;10.75;2.80;;;;;;;;;;5064227;28;20075;-52
2022/06/20 11:18:20;;;;;;;3.60;2.50;;;;;;;;;;5110102;28;20081;-54
2022/06/20 11:21:05;;;;;;;5.70;2.80;;;;;;;;;;5109969;28;20379;-54
2022/06/20 11:24:01;;;;;;;3.13;2.67;;;;;;;;;;5109836;28;20031;-55
2022/06/20 11:26:41;;;;;;;3.08;2.75;;;;;;;;;;5109592;28;20043;-60
2022/06/20 11:29:24;;;;;;;2.78;2.58;;;;;;;;;;5110014;28;20024;-51
2022/06/20 11:32:14;;;;;;;7.22;2.90;;;;;;;;;;5109472;28;20577;-45
2022/06/20 11:34:46;;;;;;;7.57;2.53;;;;;;;;;;5091257;28;20039;-38
2022/06/20 11:37:28;;;;;;;4.18;2.25;;;;;;;;;;5109753;28;20032;-54
2022/06/20 11:40:15;;;;;;;3.20;2.60;;;;;;;;;;5109896;28;20536;-45
2022/06/20 11:42:55;;;;;;;3.95;2.50;;;;;;;;;;5109556;28;20031;-38
2022/06/20 11:45:29;;;;;;;5.03;2.80;;;;;;;;;;5109362;28;20467;-47
2022/06/20 11:48:06;;;;;;;2.80;2.58;;;;;;;;;;5109565;28;20265;-46
2022/06/20 11:50:40;;;;;;;4.20;3.00;;;;;;;;;;5109572;28;20057;-39
2022/06/20 11:53:38;;;;;;;7.28;2.80;;;;;;;;;;5109455;28;20108;-49
2022/06/20 11:56:24;;;;;;;2.97;2.72;;;;;;;;;;5109609;28;20027;-51
2022/06/20 11:59:14;;;;;;;6.28;2.70;;;;;;;;;;5109386;28;20028;-46
2022/06/20 12:02:23;;;;;;;3.40;2.60;;;;;;;;;;5109478;28;20107;-39
2022/06/20 12:05:17;;;;;;;3.00;2.70;;;;;;;;;;5113131;28;20118;-48
2022/06/20 12:08:09;;;;;;;4.60;2.78;;;;;;;;;;5112754;28;20494;-59
2022/06/20 12:10:49;;;;;;;6.00;3.00;;;;;;;;;;5113575;28;20106;-57
2022/06/20 12:13:27;;;;;;;5.45;3.10;;;;;;;;;;5113045;28;20383;-47
2022/06/20 12:16:24;;;;;;;7.80;2.83;;;;;;;;;;5112645;28;20073;-59
2022/06/20 12:25:24;;;;;;;8.43;3.15;;;;;;;;;;5114414;28;20026;-55
2022/06/20 12:27:51;;;;;;;6.28;2.95;;;;;;;;;;5114361;28;20023;-39
2022/06/20 12:30:17;;;;;;;4.70;2.95;;;;;;;;;;5114191;28;20023;-48
2022/06/20 12:32:45;;;;;;;4.03;2.67;;;;;;;;;;5114457;28;20080;-59
2022/06/20 12:35:37;;;;;;;3.60;3.00;;;;;;;;;;5114433;28;20080;-40
2022/06/20 12:38:31;;;;;;;3.05;2.60;;;;;;;;;;5114345;28;20071;-51
2022/06/20 12:41:04;;;;;;;7.32;3.30;;;;;;;;;;5113902;28;20478;-61
2022/06/20 12:43:50;;;;;;;5.85;2.67;;;;;;;;;;5113803;28;20079;-47
2022/06/20 12:46:21;;;;;;;6.15;3.28;;;;;;;;;;5114195;28;20032;-40
2022/06/20 12:49:01;;;;;;;5.57;2.80;;;;;;;;;;5113910;28;20028;-45
2022/06/20 12:51:42;;;;;;;3.33;2.75;;;;;;;;;;5113606;28;20035;-51
2022/06/20 12:54:42;;;;;;;7.75;3.30;;;;;;;;;;5114085;28;20024;-57
2022/06/20 12:57:41;;;;;;;3.03;2.38;;;;;;;;;;5095398;28;20066;-61
2022/06/20 13:00:17;;;;;;;4.75;2.60;;;;;;;;;;5113621;28;20118;-51
2022/06/20 13:03:11;;;;;;;11.32;2.67;;;;;;;;;;5093467;28;20151;-59
2022/06/20 13:05:55;;;;;;;2.78;2.58;;;;;;;;;;5111224;28;20054;-58
2022/06/20 13:08:47;;;;;;;5.88;2.70;;;;;;;;;;5113833;28;20058;-38
2022/06/20 13:11:33;;;;;;;4.00;2.65;;;;;;;;;;5113627;28;20497;-57
2022/06/20 13:14:14;;;;;;;3.55;3.00;;;;;;;;;;5113203;28;20104;-52
2022/06/20 13:16:48;;;;;;;15.60;2.80;;;;;;;;;;5113194;28;20066;-62
2022/06/20 13:19:47;;;;;;;5.07;3.10;;;;;;;;;;5113313;28;20510;-48
2022/06/20 13:22:33;;;;;;;3.55;3.15;;;;;;;;;;5113363;28;20035;-50
2022/06/20 13:25:23;;;;;;;4.03;2.72;;;;;;;;;;5113330;28;20027;-58
2022/06/20 13:27:56;;;;;;;3.22;2.92;;;;;;;;;;5113237;28;20028;-51
2022/06/20 13:30:39;;;;;;;3.95;2.50;;;;;;;;;;5113315;28;20036;-49
2022/06/20 13:33:37;;;;;;;10.73;2.80;;;;;;;;;;5113304;28;20080;-60
2022/06/20 13:36:19;;;;;;;3.73;2.67;;;;;;;;;;5113103;28;20031;-49
2022/06/20 13:38:56;;;;;;;8.25;2.40;;;;;;;;;;5112957;28;20728;-51
2022/06/20 13:41:51;;;;;;;4.70;2.45;;;;;;;;;;5113039;28;20039;-41
2022/06/20 13:44:39;;;;;;;3.15;2.30;;;;;;;;;;5108683;28;20103;-55
2022/06/20 13:47:31;;;;;;;2.88;2.50;;;;;;;;;;5112372;28;20023;-42
2022/06/20 13:50:15;;;;;;;4.30;2.63;;;;;;;;;;5112002;28;20544;-59
2022/06/20 13:52:47;;;;;;;3.60;2.90;;;;;;;;;;5093017;28;20049;-58
2022/06/20 13:55:35;;;;;;;6.32;3.13;;;;;;;;;;5111632;28;20415;-60
2022/06/20 13:58:10;;;;;;;5.05;3.28;;;;;;;;;;5112269;28;20035;-50
2022/06/20 14:00:36;;;;;;;4.25;2.60;;;;;;;;;;5112333;28;20047;-59
2022/06/20 14:03:08;;;;;;;4.57;2.83;;;;;;;;;;5112324;28;20055;-61
2022/06/20 14:05:35;;;;;;;3.22;2.92;;;;;;;;;;5112765;28;20031;-46
2022/06/20 14:08:13;;;;;;;3.05;2.67;;;;;;;;;;5112639;28;20450;-42
2022/06/20 14:10:58;;;;;;;3.50;2.70;;;;;;;;;;5112652;28;20115;-39
2022/06/20 14:13:26;;;;;;;7.60;2.50;;;;;;;;;;5112145;28;20051;-47
2022/06/20 14:15:54;;;;;;;3.10;2.80;;;;;;;;;;5111987;28;20044;-38
2022/06/20 14:18:22;;;;;;;3.13;2.70;;;;;;;;;;5112462;28;20069;-53
2022/06/20 14:20:58;;;;;;;4.72;2.90;;;;;;;;;;5112339;28;20028;-43
2022/06/20 14:23:25;;;;;;;3.35;2.70;;;;;;;;;;5112206;28;20031;-59
2022/06/20 14:25:54;;;;;;;4.07;2.75;;;;;;;;;;5111274;28;20028;-40
2022/06/20 14:28:28;;;;;;;6.45;2.65;;;;;;;;;;5112361;28;20045;-52
2022/06/20 14:31:19;;;;;;;7.55;2.50;;;;;;;;;;5112107;28;20118;-40
2022/06/20 14:33:50;;;;;;;4.07;2.58;;;;;;;;;;5112104;28;20060;-45
2022/06/20 14:36:46;;;;;;;4.30;2.50;;;;;;;;;;5111802;28;20482;-39
2022/06/20 14:39:40;;;;;;;3.15;2.67;;;;;;;;;;5112090;28;20036;-62
2022/06/20 14:42:20;;;;;;;6.78;2.67;;;;;;;;;;5111619;28;20035;-39
2022/06/20 14:44:54;;;;;;;4.40;2.50;;;;;;;;;;5112050;28;20084;-38
2022/06/20 14:47:57;;;;;;;2.72;2.40;;;;;;;;;;5111694;28;20031;-39
2022/06/20 14:50:42;;;;;;;3.60;2.70;;;;;;;;;;5111920;28;20035;-62
2022/06/20 14:53:42;;;;;;;5.32;3.30;;;;;;;;;;5111670;28;20032;-39
2022/06/20 14:56:11;;;;;;;;;;;;;;;;;;5111645;28;20054;-39
2022/06/20 14:58:57;;;;;;;6.43;3.28;;;;;;;;;;5111701;28;20141;-62
2022/06/20 15:01:25;;;;;;;6.65;2.83;;;;;;;;;;5111595;28;20027;-40
2022/06/20 15:04:04;;;;;;;3.70;2.85;;;;;;;;;;5111528;28;20035;-49
2022/06/20 15:07:05;;;;;;;3.87;2.90;;;;;;;;;;5111731;28;20130;-62
2022/06/20 15:09:56;;;;;;;5.85;2.80;;;;;;;;;;5111681;28;20248;-40
2022/06/20 15:12:31;;;;;;;3.65;2.95;;;;;;;;;;5096473;28;20035;-57
2022/06/20 15:14:59;;;;;;;6.78;2.97;;;;;;;;;;5111519;28;20071;-49
2022/06/20 15:17:27;;;;;;;3.55;3.25;;;;;;;;;;5111083;28;20132;-51
2022/06/20 15:20:05;;;;;;;3.78;3.00;;;;;;;;;;5111472;28;20032;-40
2022/06/20 15:22:55;;;;;;;3.42;2.70;;;;;;;;;;5111131;28;20034;-39
2022/06/20 15:25:20;;;;;;;6.63;2.75;;;;;;;;;;5111476;28;20106;-38
2022/06/20 15:28:03;;;;;;;3.47;2.73;;;;;;;;;;5111522;28;20450;-62
2022/06/20 15:30:35;;;;;;;3.97;2.80;;;;;;;;;;5111422;28;20260;-52
2022/06/20 15:33:04;;;;;;;5.63;2.90;;;;;;;;;;5111214;28;20255;-48
2022/06/20 15:35:52;;;;;;;6.20;2.70;;;;;;;;;;5110580;28;20042;-39
2022/06/20 15:38:35;;;;;;;5.82;2.40;;;;;;;;;;5114052;28;20024;-57
2022/06/20 15:41:13;;;;;;;7.75;2.70;;;;;;;;;;5115443;28;20023;-57
2022/06/20 15:43:46;;;;;;;3.65;2.70;;;;;;;;;;5115471;28;20035;-57
2022/06/20 15:46:27;;;;;;;5.05;2.53;;;;;;;;;;5115411;28;20101;-40
2022/06/20 15:48:59;;;;;;;3.22;2.40;;;;;;;;;;5115104;28;20027;-60
2022/06/20 15:51:57;;;;;;;3.97;2.63;;;;;;;;;;5115359;28;20031;-39
2022/06/20 15:55:00;;;;;;;4.57;2.95;;;;;;;;;;5081439;28;20036;-61
2022/06/20 15:57:52;;;;;;;3.78;2.78;;;;;;;;;;5115137;28;20032;-58
2022/06/20 16:00:21;;;;;;;3.13;2.60;;;;;;;;;;5110814;28;20067;-38